Time;durP1;ratioP1;P1;durP2;ratioP2;P2;SDS_P1;SDS_P2;PMS_P1;PMS_P2;Temp;Humidity;BMP_temperature;BMP_pressure;BME280_temperature;BME280_humidity;BME280_pressure;Samples;Min_cycle;Max_cycle;Signal;HPM_P1;HPM_P2
2023/12/31 00:01:44;;;;;;;4.25;1.10;;;;;;;7.38;100.00;100415.91;5073128;28;20111;-79
2023/12/31 00:04:10;;;;;;;5.35;1.52;;;;;;;7.34;100.00;100406.72;5073048;28;20107;-80
2023/12/31 00:06:35;;;;;;;3.58;1.08;;;;;;;7.14;100.00;100371.88;5073137;28;20468;-80
2023/12/31 00:09:00;;;;;;;3.53;1.30;;;;;;;7.44;100.00;100400.97;5072710;28;20446;-79
2023/12/31 00:11:26;;;;;;;2.78;0.95;;;;;;;7.45;100.00;100400.03;5072952;28;20495;-80
2023/12/31 00:13:51;;;;;;;3.90;1.10;;;;;;;7.39;100.00;100377.28;5072602;28;20020;-80
2023/12/31 00:16:16;;;;;;;2.67;1.05;;;;;;;7.53;100.00;100384.19;5072843;28;20039;-81
2023/12/31 00:18:42;;;;;;;1.95;1.25;;;;;;;7.43;100.00;100363.34;5072503;28;20097;-79
2023/12/31 00:21:07;;;;;;;3.25;1.23;;;;;;;7.62;100.00;100382.84;5072851;28;20310;-80
2023/12/31 00:23:32;;;;;;;4.85;1.20;;;;;;;7.58;100.00;100377.06;5072839;28;20419;-79
2023/12/31 00:25:58;;;;;;;2.92;1.10;;;;;;;7.60;100.00;100375.22;5072680;28;20603;-80
2023/12/31 00:28:23;;;;;;;3.20;1.10;;;;;;;7.61;100.00;100358.06;5072398;28;20032;-80
2023/12/31 00:30:49;;;;;;;4.30;1.48;;;;;;;7.52;100.00;100338.88;5072650;28;20115;-80
2023/12/31 00:33:14;;;;;;;1.95;1.13;;;;;;;7.32;100.00;100305.81;5072441;28;20036;-79
2023/12/31 00:35:39;;;;;;;4.28;1.38;;;;;;;7.59;100.00;100360.72;5072256;28;20036;-79
2023/12/31 00:38:05;;;;;;;3.45;1.15;;;;;;;7.60;100.00;100348.72;5054655;28;20040;-80
2023/12/31 00:40:30;;;;;;;2.80;1.10;;;;;;;7.47;100.00;100310.03;5072689;28;20031;-79
2023/12/31 00:42:55;;;;;;;3.75;1.13;;;;;;;7.50;100.00;100311.63;5072326;28;20036;-80
2023/12/31 00:45:21;;;;;;;3.88;1.20;;;;;;;7.71;100.00;100329.16;5072405;28;20108;-80
2023/12/31 00:47:46;;;;;;;3.28;1.20;;;;;;;7.47;100.00;100274.94;5072335;28;20063;-80
2023/12/31 00:50:11;;;;;;;3.00;1.20;;;;;;;7.65;100.00;100301.25;5072167;28;20024;-80
2023/12/31 00:52:37;;;;;;;3.30;1.27;;;;;;;7.32;100.00;100237.28;5072264;28;20436;-79
2023/12/31 00:55:02;;;;;;;5.38;1.20;;;;;;;7.50;100.00;100273.09;5072462;28;20029;-80
2023/12/31 00:57:29;;;;;;;3.80;1.25;;;;;;;7.82;100.00;100307.16;5072462;28;20028;-78
2023/12/31 00:59:54;;;;;;;4.88;1.30;;;;;;;7.86;100.00;100311.19;5072215;28;20089;-80
2023/12/31 01:02:20;;;;;;;2.97;1.63;;;;;;;7.81;100.00;100292.66;5072453;28;20028;-79
2023/12/31 01:04:48;;;;;;;2.97;1.15;;;;;;;7.88;100.00;100309.38;5072123;28;20021;-81
2023/12/31 01:07:13;;;;;;;2.22;1.10;;;;;;;7.54;100.00;100257.38;5072179;28;20092;-78
2023/12/31 01:09:39;;;;;;;4.60;1.60;;;;;;;7.56;100.00;100263.25;5075222;28;20165;-80
2023/12/31 01:12:04;;;;;;;2.58;1.25;;;;;;;7.86;100.00;100304.28;5076297;28;20036;-81
2023/12/31 01:14:30;;;;;;;3.08;1.25;;;;;;;7.85;100.00;100291.53;5076276;28;20021;-81
2023/12/31 01:16:55;;;;;;;2.83;1.30;;;;;;;7.52;100.00;100243.00;5076116;28;20028;-81
2023/12/31 01:19:23;;;;;;;2.50;1.20;;;;;;;7.80;100.00;100291.00;5075952;28;20132;-79
2023/12/31 01:21:49;;;;;;;2.85;1.60;;;;;;;7.78;100.00;100277.41;5076075;28;20028;-81
2023/12/31 01:24:14;;;;;;;3.13;1.10;;;;;;;7.70;100.00;100265.03;5076378;28;20077;-81
2023/12/31 01:26:41;;;;;;;2.63;1.30;;;;;;;7.73;100.00;100267.41;5057724;28;20395;-82
2023/12/31 01:29:06;;;;;;;3.33;1.38;;;;;;;7.73;100.00;100272.53;5075973;28;20036;-80
2023/12/31 01:31:32;;;;;;;2.90;1.23;;;;;;;7.34;100.00;100190.97;5076064;28;20353;-82
2023/12/31 01:33:57;;;;;;;3.38;1.15;;;;;;;7.41;100.00;100197.38;5075891;28;20028;-79
2023/12/31 01:36:25;;;;;;;1.98;1.20;;;;;;;7.74;100.00;100251.88;5075887;28;20020;-80
2023/12/31 01:38:50;;;;;;;3.03;1.20;;;;;;;7.50;100.00;100211.44;5076044;28;20452;-80
2023/12/31 01:41:15;;;;;;;4.80;1.30;;;;;;;7.76;100.00;100249.22;5075800;28;20121;-82
2023/12/31 01:43:41;;;;;;;2.35;1.20;;;;;;;7.76;100.00;100244.91;5075683;28;20115;-81
2023/12/31 01:46:09;;;;;;;2.47;1.10;;;;;;;7.74;100.00;100233.06;5075510;28;20096;-79
2023/12/31 01:48:35;;;;;;;3.47;1.20;;;;;;;7.73;100.00;100239.94;5075591;28;20024;-83
2023/12/31 01:51:01;;;;;;;1.98;1.10;;;;;;;7.73;100.00;100231.41;5075714;28;20025;-83
2023/12/31 01:53:27;;;;;;;5.40;1.48;;;;;;;7.75;100.00;100230.41;5075170;28;20043;-79
2023/12/31 01:55:53;;;;;;;1.85;1.25;;;;;;;7.79;100.00;100222.53;5075403;28;20025;-79
2023/12/31 01:58:19;;;;;;;3.08;1.27;;;;;;;7.80;100.00;100222.41;5075517;28;20076;-82
2023/12/31 02:00:45;;;;;;;2.85;1.50;;;;;;;7.64;100.00;100178.00;5075049;28;20024;-82
2023/12/31 02:03:13;;;;;;;2.95;1.10;;;;;;;7.73;100.00;100187.72;5075288;28;20029;-80
2023/12/31 02:05:38;;;;;;;2.03;1.17;;;;;;;7.88;100.00;100209.09;5075377;28;20024;-82
2023/12/31 02:08:04;;;;;;;4.20;1.30;;;;;;;7.60;100.00;100158.56;5075167;28;20085;-82
2023/12/31 02:10:29;;;;;;;2.30;1.10;;;;;;;7.83;100.00;100199.09;5075369;28;20035;-80
2023/12/31 02:12:56;;;;;;;3.08;1.33;;;;;;;7.83;100.00;100193.13;5075307;28;20468;-83
2023/12/31 02:15:34;;;;;;;2.22;1.30;;;;;;;7.69;100.00;100174.25;5074968;28;20534;-80
2023/12/31 02:18:01;;;;;;;2.08;1.10;;;;;;;7.75;100.00;100189.28;5075065;28;20476;-83
2023/12/31 02:20:29;;;;;;;3.13;1.17;;;;;;;7.68;100.00;100164.91;5074673;28;20044;-82
2023/12/31 02:22:55;;;;;;;2.67;1.30;;;;;;;7.66;100.00;100165.88;5074983;28;20028;-82
2023/12/31 02:25:24;;;;;;;1.77;1.20;;;;;;;7.68;100.00;100162.31;5075048;28;20479;-82
2023/12/31 02:27:50;;;;;;;2.70;1.45;;;;;;;7.67;100.00;100162.38;5074739;28;20036;-82
2023/12/31 02:30:16;;;;;;;2.13;1.30;;;;;;;7.54;100.00;100140.94;5074642;28;20021;-83
2023/12/31 02:32:41;;;;;;;2.80;1.20;;;;;;;7.67;100.00;100154.69;5074827;28;20052;-82
2023/12/31 02:35:07;;;;;;;4.45;1.65;;;;;;;7.30;100.00;100091.91;5074853;28;20105;-82
2023/12/31 02:37:33;;;;;;;3.42;1.30;;;;;;;7.68;100.00;100143.50;5074677;28;20147;-82
2023/12/31 02:39:58;;;;;;;2.40;1.25;;;;;;;7.47;100.00;100099.38;5074843;28;20020;-82
2023/12/31 02:42:24;;;;;;;2.50;1.20;;;;;;;7.57;100.00;100103.06;5074393;28;20440;-82
2023/12/31 02:44:49;;;;;;;7.30;1.33;;;;;;;7.54;100.00;100090.38;5074566;28;20028;-79
2023/12/31 02:47:14;;;;;;;4.70;1.70;;;;;;;7.01;100.00;100004.66;5056704;28;20021;-82
2023/12/31 02:49:40;;;;;;;2.33;1.23;;;;;;;7.67;100.00;100111.84;5074407;28;20406;-81
2023/12/31 02:52:10;;;;;;;2.92;1.10;;;;;;;7.67;100.00;100105.84;5074520;28;20031;-82
2023/12/31 02:54:35;;;;;;;5.53;1.40;;;;;;;7.65;100.00;100087.16;5056565;28;20029;-82
2023/12/31 02:57:01;;;;;;;4.25;1.23;;;;;;;7.42;100.00;100055.19;5074067;28;20106;-82
2023/12/31 02:59:26;;;;;;;3.22;1.67;;;;;;;7.12;100.00;100002.25;5074310;28;20040;-83
2023/12/31 03:01:52;;;;;;;2.05;1.40;;;;;;;7.44;100.00;100053.34;5072902;28;20021;-83
2023/12/31 03:04:17;;;;;;;3.67;1.67;;;;;;;7.37;100.00;100036.66;5074265;28;20029;-83
2023/12/31 03:06:43;;;;;;;1.98;1.13;;;;;;;7.64;100.00;100070.09;5074071;28;20025;-82
2023/12/31 03:09:09;;;;;;;2.28;1.30;;;;;;;7.60;100.00;100061.75;5073981;28;20097;-82
2023/12/31 03:11:35;;;;;;;2.10;1.20;;;;;;;7.51;100.00;100046.91;5073840;28;20507;-83
2023/12/31 03:14:00;;;;;;;4.20;1.42;;;;;;;7.63;100.00;100060.72;5074091;28;20055;-82
2023/12/31 03:16:29;;;;;;;3.67;1.33;;;;;;;7.62;100.00;100059.09;5073935;28;20089;-79
2023/12/31 03:19:03;;;;;;;2.55;1.50;;;;;;;7.56;100.00;100047.44;5073820;28;20045;-83
2023/12/31 03:21:28;;;;;;;3.00;1.38;;;;;;;6.88;100.00;99926.75;5055557;28;20043;-83
2023/12/31 03:23:56;;;;;;;2.33;1.42;;;;;;;7.58;100.00;100037.09;5073572;28;20028;-82
2023/12/31 03:26:23;;;;;;;2.67;1.50;;;;;;;7.31;100.00;99990.84;5073975;28;20021;-79
2023/12/31 03:28:48;;;;;;;2.75;1.38;;;;;;;7.56;100.00;100013.22;5074034;28;20020;-80
2023/12/31 03:31:14;;;;;;;2.63;1.67;;;;;;;7.53;100.00;100003.13;5072973;28;20543;-80
2023/12/31 03:33:39;;;;;;;1.98;1.33;;;;;;;7.50;100.00;99995.63;5073455;28;20493;-80
2023/12/31 03:36:06;;;;;;;3.10;1.55;;;;;;;7.50;100.00;99996.47;5073609;28;20028;-80
2023/12/31 03:38:31;;;;;;;2.03;1.33;;;;;;;7.48;100.00;99993.16;5073205;28;20028;-80
2023/12/31 03:40:56;;;;;;;2.30;1.45;;;;;;;7.37;100.00;99970.69;5073512;28;20029;-80
2023/12/31 03:43:21;;;;;;;2.45;1.40;;;;;;;7.46;100.00;99969.31;5073391;28;20044;-80
2023/12/31 03:45:47;;;;;;;3.03;1.20;;;;;;;7.45;100.00;99960.78;5073194;28;20020;-81
2023/12/31 03:48:12;;;;;;;2.50;1.40;;;;;;;7.08;100.00;99889.56;5073307;28;20377;-79
2023/12/31 03:50:37;;;;;;;2.85;1.55;;;;;;;7.18;100.00;99904.31;5073188;28;20116;-80
2023/12/31 03:53:03;;;;;;;3.15;1.50;;;;;;;7.45;100.00;99931.69;5072957;28;20063;-81
2023/12/31 03:55:28;;;;;;;3.25;1.40;;;;;;;7.47;100.00;99937.53;5055072;28;20044;-81
2023/12/31 03:57:53;;;;;;;3.63;1.60;;;;;;;7.46;100.00;99943.59;5073455;28;20473;-81
2023/12/31 04:00:19;;;;;;;2.50;1.50;;;;;;;7.45;100.00;99937.66;5055179;28;20032;-81
2023/12/31 04:02:44;;;;;;;4.07;1.70;;;;;;;7.44;100.00;99920.59;5072812;28;20138;-80
2023/12/31 04:05:10;;;;;;;3.03;1.60;;;;;;;7.44;100.00;99924.91;5072924;28;20103;-80
2023/12/31 04:07:35;;;;;;;3.15;1.40;;;;;;;7.43;100.00;99921.53;5072966;28;20035;-80
2023/12/31 04:10:01;;;;;;;1.90;1.60;;;;;;;7.26;100.00;99879.84;5072647;28;20027;-79
2023/12/31 04:12:26;;;;;;;3.08;1.60;;;;;;;7.39;100.00;99902.09;5072746;28;20032;-81
2023/12/31 04:14:51;;;;;;;3.17;1.67;;;;;;;7.31;100.00;99888.09;5072991;28;20024;-79
2023/12/31 04:17:18;;;;;;;3.22;1.40;;;;;;;7.21;100.00;99866.50;5054296;28;20113;-80
2023/12/31 04:19:43;;;;;;;2.85;1.40;;;;;;;7.14;100.00;99840.41;5072478;28;20119;-80
2023/12/31 04:22:11;;;;;;;4.68;1.70;;;;;;;7.23;100.00;99844.94;5054654;28;20128;-79
2023/12/31 04:24:36;;;;;;;2.90;1.67;;;;;;;7.36;100.00;99861.19;5072432;28;20461;-80
2023/12/31 04:27:02;;;;;;;2.90;1.63;;;;;;;7.37;100.00;99862.00;5072853;28;20062;-79
2023/12/31 04:29:27;;;;;;;2.33;1.58;;;;;;;7.37;100.00;99864.56;5072730;28;20024;-79
2023/12/31 04:31:52;;;;;;;3.78;1.52;;;;;;;7.03;100.00;99807.72;5054158;28;20484;-80
2023/12/31 04:34:18;;;;;;;2.45;1.60;;;;;;;7.24;100.00;99830.34;5072288;28;20044;-80
2023/12/31 04:36:44;;;;;;;3.45;1.70;;;;;;;7.37;100.00;99854.31;5072758;28;20033;-79
2023/12/31 04:39:10;;;;;;;2.65;1.63;;;;;;;6.81;100.00;99767.22;5072454;28;20502;-80
2023/12/31 04:41:35;;;;;;;2.72;1.83;;;;;;;7.24;100.00;99840.63;5054475;28;20040;-80
2023/12/31 04:44:00;;;;;;;3.58;1.77;;;;;;;7.16;100.00;99815.44;5071630;28;20460;-80
2023/12/31 04:46:26;;;;;;;4.32;1.73;;;;;;;7.31;100.00;99835.00;5072360;28;20020;-81
2023/12/31 04:48:51;;;;;;;3.13;1.75;;;;;;;7.31;100.00;99840.13;5072205;28;20044;-79
2023/12/31 04:51:27;;;;;;;3.08;1.90;;;;;;;7.31;100.00;99831.59;5072527;28;20021;-81
2023/12/31 04:53:54;;;;;;;3.45;1.80;;;;;;;7.15;100.00;99800.97;5072318;28;20357;-80
2023/12/31 04:56:20;;;;;;;2.97;1.80;;;;;;;7.11;100.00;99789.25;5053467;28;20476;-80
2023/12/31 04:58:50;;;;;;;3.65;1.80;;;;;;;7.06;100.00;99784.41;5072423;28;20028;-81
2023/12/31 05:01:16;;;;;;;4.00;2.20;;;;;;;7.30;100.00;99809.41;5072399;28;20410;-81
2023/12/31 05:03:41;;;;;;;5.18;1.80;;;;;;;7.20;100.00;99783.53;5072112;28;20151;-81
2023/12/31 05:06:06;;;;;;;4.38;2.20;;;;;;;7.33;100.00;99801.50;5072219;28;20473;-81
2023/12/31 05:08:32;;;;;;;4.18;2.15;;;;;;;7.07;100.00;99750.13;5071938;28;20024;-80
2023/12/31 05:10:58;;;;;;;4.00;1.85;;;;;;;7.39;100.00;99790.84;5072258;28;20357;-81
2023/12/31 05:13:23;;;;;;;3.60;2.17;;;;;;;7.27;100.00;99765.94;5072427;28;20040;-82
2023/12/31 05:15:48;;;;;;;4.03;2.00;;;;;;;7.46;100.00;99782.59;5072193;28;20039;-80
2023/12/31 05:18:14;;;;;;;3.75;2.20;;;;;;;7.22;100.00;99735.47;5071872;28;20047;-81
2023/12/31 05:20:41;;;;;;;3.90;1.83;;;;;;;7.55;100.00;99770.91;5072066;28;20028;-80
2023/12/31 05:23:07;;;;;;;5.40;2.20;;;;;;;7.57;100.00;99763.94;5072077;28;20028;-79
2023/12/31 05:25:32;;;;;;;3.75;2.25;;;;;;;7.59;100.00;99763.81;5070824;28;20027;-80
2023/12/31 05:27:57;;;;;;;4.32;2.20;;;;;;;7.62;100.00;99754.16;5054035;28;20115;-80
2023/12/31 05:30:23;;;;;;;8.82;2.30;;;;;;;7.64;100.00;99743.75;5071900;28;20421;-79
2023/12/31 05:32:48;;;;;;;5.70;2.30;;;;;;;7.56;100.00;99726.28;5053285;28;20040;-80
2023/12/31 05:35:14;;;;;;;3.05;2.05;;;;;;;7.54;100.00;99723.00;5072044;28;20025;-80
2023/12/31 05:37:39;;;;;;;4.75;2.47;;;;;;;7.60;100.00;99735.44;5072191;28;20428;-80
2023/12/31 05:40:05;;;;;;;4.25;2.17;;;;;;;7.52;100.00;99709.47;5067579;23;20404;-79
2023/12/31 05:42:31;;;;;;;4.93;1.98;;;;;;;7.53;100.00;99705.97;5051840;28;20100;-79
2023/12/31 05:44:57;;;;;;;4.50;2.30;;;;;;;7.61;100.00;99706.25;5050187;28;20128;-80
2023/12/31 05:47:22;;;;;;;4.53;2.50;;;;;;;7.70;100.00;99720.22;5051639;28;20392;-81
2023/12/31 05:49:47;;;;;;;3.90;2.25;;;;;;;7.47;100.00;99694.38;5051625;28;20032;-80
2023/12/31 05:52:13;;;;;;;4.10;2.28;;;;;;;7.67;100.00;99721.28;5051687;28;20096;-79
2023/12/31 05:54:41;;;;;;;3.47;2.20;;;;;;;7.68;100.00;99706.66;5052967;28;20477;-79
2023/12/31 05:57:06;;;;;;;3.78;2.38;;;;;;;7.66;100.00;99696.47;5055499;28;20056;-79
2023/12/31 05:59:32;;;;;;;4.47;2.53;;;;;;;7.66;100.00;99705.94;5055406;28;20457;-80
2023/12/31 06:01:57;;;;;;;4.63;2.50;;;;;;;7.66;100.00;99700.78;5055418;28;20032;-80
2023/12/31 06:04:24;;;;;;;4.30;2.40;;;;;;;7.34;100.00;99643.94;5055125;28;20461;-81
2023/12/31 06:06:50;;;;;;;4.28;2.47;;;;;;;7.12;100.00;99632.56;5055407;28;20021;-81
2023/12/31 06:09:15;;;;;;;3.63;2.40;;;;;;;7.44;100.00;99657.78;5053156;28;20037;-80
2023/12/31 06:11:40;;;;;;;3.72;2.50;;;;;;;7.39;100.00;99652.97;5055008;28;20055;-80
2023/12/31 06:14:07;;;;;;;4.43;2.63;;;;;;;7.67;100.00;99702.44;5054874;28;20025;-79
2023/12/31 06:16:32;;;;;;;4.10;2.30;;;;;;;7.65;100.00;99687.13;5055061;28;20017;-79
2023/12/31 06:18:57;;;;;;;4.18;2.58;;;;;;;7.62;100.00;99681.38;5054981;28;20025;-79
2023/12/31 06:21:23;;;;;;;4.28;2.20;;;;;;;7.57;100.00;99679.16;5055224;28;20083;-80
2023/12/31 06:23:48;;;;;;;5.43;2.70;;;;;;;7.52;100.00;99667.53;5055125;28;20053;-79
2023/12/31 06:26:13;;;;;;;3.35;2.35;;;;;;;7.48;100.00;99661.81;5054748;28;20025;-80
2023/12/31 06:28:39;;;;;;;5.00;2.63;;;;;;;7.30;100.00;99632.25;5054914;28;20082;-79
2023/12/31 06:31:04;;;;;;;4.63;2.58;;;;;;;7.41;100.00;99656.25;5054701;28;20104;-79
2023/12/31 06:33:29;;;;;;;2.92;2.17;;;;;;;7.42;100.00;99654.50;5054484;28;20124;-80
2023/12/31 06:35:55;;;;;;;4.75;2.55;;;;;;;7.21;100.00;99625.16;5036319;28;20044;-80
2023/12/31 06:38:20;;;;;;;4.65;2.45;;;;;;;7.08;100.00;99602.03;5054673;28;20483;-80
2023/12/31 06:40:45;;;;;;;4.72;2.50;;;;;;;7.33;100.00;99642.28;5053844;28;20053;-80
2023/12/31 06:43:11;;;;;;;3.58;2.42;;;;;;;7.04;100.00;99593.75;5054728;28;20083;-80
2023/12/31 06:45:39;;;;;;;5.15;2.78;;;;;;;7.25;100.00;99616.31;5054740;28;20029;-80
2023/12/31 06:48:24;;;;;;;4.65;2.70;;;;;;;6.77;100.00;99539.97;5054200;28;20033;-79
2023/12/31 06:56:41;;;;;;;4.10;2.33;;;;;;;7.18;100.00;99580.81;5053162;28;20072;-82
2023/12/31 06:59:07;;;;;;;3.40;2.45;;;;;;;6.87;100.00;99528.16;5036663;28;20021;-80
2023/12/31 07:01:35;;;;;;;3.92;2.45;;;;;;;7.28;100.00;99598.16;5054407;28;20056;-83
2023/12/31 07:04:09;;;;;;;4.07;2.40;;;;;;;7.31;100.00;99595.34;5054211;28;20033;-80
2023/12/31 07:06:35;;;;;;;4.72;2.60;;;;;;;7.16;100.00;99559.53;5053297;28;20469;-84
2023/12/31 07:09:18;;;;;;;4.60;2.50;;;;;;;7.42;100.00;99585.97;5053904;28;20032;-81
2023/12/31 07:11:50;;;;;;;4.50;2.60;;;;;;;6.26;100.00;99391.28;5054176;28;20025;-85
2023/12/31 07:14:15;;;;;;;4.22;2.65;;;;;;;6.73;100.00;99456.47;5036071;28;20043;-83
2023/12/31 07:16:53;;;;;;;4.47;2.42;;;;;;;7.19;100.00;99527.72;5054179;28;20033;-81
2023/12/31 07:19:21;;;;;;;3.70;2.38;;;;;;;6.79;100.00;99432.97;5053957;28;20024;-84
2023/12/31 07:21:47;;;;;;;4.95;2.30;;;;;;;7.74;100.00;99565.72;5054038;28;20036;-86
2023/12/31 07:24:12;;;;;;;3.35;2.22;;;;;;;7.48;100.00;99515.38;5036418;28;20029;-85
2023/12/31 07:26:38;;;;;;;4.30;2.47;;;;;;;7.89;100.00;99563.00;5054293;28;20035;-87
2023/12/31 07:29:03;;;;;;;5.00;2.20;;;;;;;7.79;100.00;99538.88;5053227;28;20544;-85
2023/12/31 07:31:28;;;;;;;3.03;2.10;;;;;;;7.96;100.00;99557.31;5033873;28;20112;-85
2023/12/31 07:33:57;;;;;;;5.30;2.38;;;;;;;7.93;100.00;99544.66;5054047;28;20029;-76
2023/12/31 07:36:22;;;;;;;3.25;2.05;;;;;;;7.90;100.00;99526.06;5053609;28;20028;-83
2023/12/31 07:38:47;;;;;;;3.00;2.00;;;;;;;7.94;100.00;99515.44;5053430;28;20037;-82
2023/12/31 07:41:13;;;;;;;4.93;2.10;;;;;;;7.99;100.00;99507.41;5053681;28;20025;-82
2023/12/31 07:43:38;;;;;;;4.18;2.30;;;;;;;8.10;100.00;99516.91;5053558;28;20025;-78
2023/12/31 07:46:05;;;;;;;4.32;2.40;;;;;;;8.06;100.00;99500.88;5053289;28;20036;-80
2023/12/31 07:48:32;;;;;;;3.97;2.17;;;;;;;8.20;100.00;99518.69;5053309;28;20484;-79
2023/12/31 07:50:57;;;;;;;5.30;2.42;;;;;;;8.11;100.00;99485.13;5053281;28;20100;-79
2023/12/31 07:53:23;;;;;;;3.08;2.67;;;;;;;8.33;100.00;99516.84;5053172;28;20457;-78
2023/12/31 07:55:48;;;;;;;2.97;2.17;;;;;;;8.14;100.00;99472.84;5035116;28;20055;-79
2023/12/31 07:58:16;;;;;;;3.38;2.25;;;;;;;8.47;100.00;99504.75;5053267;28;20535;-82
2023/12/31 08:00:45;;;;;;;3.70;2.20;;;;;;;8.53;100.00;99505.09;5053215;28;20033;-81
2023/12/31 08:03:10;;;;;;;3.28;2.15;;;;;;;8.44;100.00;99495.47;5053227;28;20025;-84
2023/12/31 08:05:36;;;;;;;2.78;2.10;;;;;;;8.20;100.00;99456.97;5053405;28;20027;-88
2023/12/31 08:08:01;;;;;;;4.75;2.50;;;;;;;8.66;100.00;99514.47;5053009;28;20033;-81
2023/12/31 08:10:29;;;;;;;3.30;2.10;;;;;;;8.33;100.00;99439.66;5035051;28;20028;-81
2023/12/31 08:12:57;;;;;;;5.13;2.30;;;;;;;8.75;100.00;99516.31;5052704;28;20111;-79
2023/12/31 08:15:28;;;;;;;3.50;2.38;;;;;;;7.65;100.00;99335.13;5034343;28;20037;-79
2023/12/31 08:18:00;;;;;;;3.95;2.25;;;;;;;7.91;100.00;99369.16;5052615;28;20024;-80
2023/12/31 08:20:25;;;;;;;3.67;2.40;;;;;;;8.84;100.00;99505.31;5034120;28;20037;-80
2023/12/31 08:22:52;;;;;;;4.28;2.50;;;;;;;8.87;100.00;99500.78;5052832;28;20074;-79
2023/12/31 08:25:19;;;;;;;3.50;2.40;;;;;;;8.75;100.00;99478.56;5052834;28;20056;-80
2023/12/31 08:27:44;;;;;;;4.63;2.40;;;;;;;8.78;100.00;99473.16;5034321;28;20043;-83
2023/12/31 08:30:10;;;;;;;4.03;2.53;;;;;;;9.02;100.00;99495.34;5052663;28;20461;-79
2023/12/31 08:32:35;;;;;;;4.18;2.17;;;;;;;9.14;100.00;99509.84;5052308;28;20025;-84
2023/12/31 08:35:00;;;;;;;3.40;2.20;;;;;;;9.13;100.00;99498.72;5052462;28;20087;-78
2023/12/31 08:37:26;;;;;;;4.03;1.92;;;;;;;9.08;100.00;99490.56;5052493;28;20032;-84
2023/12/31 08:39:51;;;;;;;2.78;1.90;;;;;;;9.17;100.00;99496.75;5052510;28;20100;-78
2023/12/31 08:42:16;;;;;;;3.10;1.77;;;;;;;9.16;100.00;99505.41;5050377;28;20060;-76
2023/12/31 08:44:42;;;;;;;3.35;2.10;;;;;;;9.13;100.00;99498.72;5034225;28;20033;-78
2023/12/31 08:47:07;;;;;;;3.22;1.92;;;;;;;9.12;100.00;99496.28;5052046;28;20025;-77
2023/12/31 08:49:32;;;;;;;3.05;2.08;;;;;;;8.95;100.00;99479.59;5052457;28;20377;-79
2023/12/31 08:51:58;;;;;;;3.63;2.20;;;;;;;9.04;100.00;99494.28;5052057;28;20504;-79
2023/12/31 08:54:23;;;;;;;4.45;2.50;;;;;;;9.03;100.00;99497.81;5052057;28;20473;-72
2023/12/31 08:56:48;;;;;;;4.28;2.33;;;;;;;9.00;100.00;99498.06;5052281;28;20465;-76
2023/12/31 08:59:14;;;;;;;4.07;2.33;;;;;;;8.93;100.00;99503.78;5052409;28;20377;-78
2023/12/31 09:01:39;;;;;;;3.85;2.30;;;;;;;8.74;100.00;99470.94;5052278;28;20025;-75
2023/12/31 09:04:06;;;;;;;4.30;2.38;;;;;;;8.83;100.00;99493.38;5052018;28;20033;-77
2023/12/31 09:06:32;;;;;;;3.70;2.45;;;;;;;8.67;100.00;99485.22;5052119;28;20029;-75
2023/12/31 09:08:57;;;;;;;2.80;1.70;;;;;;;8.47;100.00;99464.41;5052249;28;20071;-75
2023/12/31 09:11:23;;;;;;;3.13;2.05;;;;;;;8.51;100.00;99496.66;5052088;28;20036;-76
2023/12/31 09:13:48;;;;;;;3.38;1.90;;;;;;;8.24;100.00;99465.25;5052122;28;20028;-75
2023/12/31 09:16:13;;;;;;;3.53;2.25;;;;;;;8.17;100.00;99475.22;5052193;28;20495;-77
2023/12/31 09:18:39;;;;;;;5.82;2.65;;;;;;;8.21;100.00;99498.94;5052056;28;20024;-75
2023/12/31 09:21:04;;;;;;;4.00;2.40;;;;;;;8.07;100.00;99487.13;5051814;28;20051;-75
2023/12/31 09:23:29;;;;;;;3.33;2.15;;;;;;;8.22;100.00;99518.56;5052182;28;20033;-76
2023/12/31 09:25:55;;;;;;;3.38;2.15;;;;;;;8.12;100.00;99500.44;5052024;28;20043;-75
2023/12/31 09:28:20;;;;;;;2.75;1.90;;;;;;;8.29;100.00;99514.63;5052008;28;20159;-75
2023/12/31 09:30:45;;;;;;;2.70;1.80;;;;;;;8.34;100.00;99525.38;5055051;28;20028;-75
2023/12/31 09:33:12;;;;;;;2.55;1.70;;;;;;;8.37;100.00;99520.03;5055904;28;20045;-75
2023/12/31 09:35:37;;;;;;;2.05;1.33;;;;;;;8.31;100.00;99503.28;5055517;28;20027;-76
2023/12/31 09:38:03;;;;;;;2.58;1.60;;;;;;;8.18;100.00;99494.03;5055921;28;20021;-77
2023/12/31 09:40:28;;;;;;;2.28;1.50;;;;;;;8.02;100.00;99459.16;5037829;28;20116;-76
2023/12/31 09:42:54;;;;;;;3.08;1.80;;;;;;;8.50;100.00;99543.09;5055698;28;20039;-76
2023/12/31 09:45:23;;;;;;;2.55;1.60;;;;;;;8.30;100.00;99500.81;5055701;28;20063;-76
2023/12/31 09:47:49;;;;;;;3.15;1.60;;;;;;;8.50;100.00;99517.38;5055635;28;20177;-78
2023/12/31 09:50:18;;;;;;;1.90;1.20;;;;;;;8.38;100.00;99505.44;5055581;28;20432;-76
2023/12/31 09:52:46;;;;;;;2.28;1.70;;;;;;;8.63;100.00;99538.66;5055581;28;20687;-78
2023/12/31 09:55:13;;;;;;;2.47;1.80;;;;;;;8.63;100.00;99539.47;5055371;28;20060;-76
2023/12/31 09:57:41;;;;;;;3.55;1.40;;;;;;;8.58;100.00;99520.19;5055413;28;20128;-78
2023/12/31 10:00:08;;;;;;;2.40;1.33;;;;;;;8.68;100.00;99549.44;5055512;28;20021;-78
2023/12/31 10:02:33;;;;;;;3.40;1.40;;;;;;;8.63;100.00;99541.22;5055354;28;20030;-78
2023/12/31 10:05:00;;;;;;;2.35;1.30;;;;;;;8.54;100.00;99531.63;5055198;28;20082;-80
2023/12/31 10:07:26;;;;;;;2.63;1.20;;;;;;;8.65;100.00;99551.41;5055205;28;20025;-80
2023/12/31 10:09:54;;;;;;;3.20;1.30;;;;;;;8.76;100.00;99564.31;5055382;28;20029;-81
2023/12/31 10:12:20;;;;;;;2.97;1.30;;;;;;;8.80;100.00;99551.06;5055128;28;20029;-81
2023/12/31 10:14:45;;;;;;;3.75;1.52;;;;;;;8.82;100.00;99548.38;5055014;28;20035;-76
2023/12/31 10:17:11;;;;;;;3.63;1.20;;;;;;;8.84;100.00;99543.94;5349790;23;20099;-80
2023/12/31 10:19:39;;;;;;;3.17;1.20;;;;;;;8.84;100.00;99549.06;5054027;28;20048;-74
2023/12/31 10:22:08;;;;;;;2.25;0.90;;;;;;;8.86;100.00;99547.22;5055427;28;20116;-76
2023/12/31 10:24:33;;;;;;;2.08;1.00;;;;;;;8.71;100.00;99504.63;5054956;28;20063;-78
2023/12/31 10:27:04;;;;;;;3.25;1.17;;;;;;;8.90;100.00;99539.13;5054825;28;20049;-78
2023/12/31 10:29:31;;;;;;;4.15;1.30;;;;;;;8.83;100.00;99534.56;5054626;28;20025;-79
2023/12/31 10:31:57;;;;;;;3.28;1.30;;;;;;;8.93;100.00;99544.97;5054950;28;20119;-79
2023/12/31 10:34:22;;;;;;;2.88;1.42;;;;;;;8.83;100.00;99532.81;5036460;28;20135;-80
2023/12/31 10:36:48;;;;;;;4.18;1.45;;;;;;;8.89;100.00;99542.66;5054287;28;20045;-78
2023/12/31 10:39:29;;;;;;;6.43;1.90;;;;;;;8.75;100.00;99549.78;5053716;28;20033;-78
2023/12/31 10:42:00;;;;;;;2.60;1.50;;;;;;;8.61;100.00;99553.41;5054582;28;20021;-77
2023/12/31 10:44:26;;;;;;;2.60;1.23;;;;;;;8.52;100.00;99560.03;5054632;28;20063;-78
2023/12/31 10:47:01;;;;;;;4.32;1.67;;;;;;;8.60;100.00;99557.72;5054614;28;20100;-76
2023/12/31 10:49:27;;;;;;;6.97;2.80;;;;;;;8.64;100.00;99558.31;5054637;28;20029;-78
2023/12/31 10:51:53;;;;;;;5.70;2.70;;;;;;;8.58;100.00;99540.78;5054496;28;20043;-80
2023/12/31 10:54:39;;;;;;;5.80;3.10;;;;;;;8.55;100.00;99548.69;5054076;28;20419;-80
2023/12/31 10:57:06;;;;;;;5.05;2.20;;;;;;;8.67;100.00;99555.53;5054144;28;20036;-79
2023/12/31 10:59:34;;;;;;;3.38;1.60;;;;;;;8.62;100.00;99544.75;5054249;28;20071;-78
2023/12/31 11:02:00;;;;;;;4.93;2.03;;;;;;;8.69;100.00;99539.97;5052906;28;20091;-73
2023/12/31 11:04:26;;;;;;;4.85;1.98;;;;;;;8.76;100.00;99541.16;5054964;28;20028;-73
2023/12/31 11:06:53;;;;;;;4.57;1.40;;;;;;;8.77;100.00;99538.44;5053880;28;20021;-73
2023/12/31 11:09:19;;;;;;;3.92;1.50;;;;;;;8.86;100.00;99540.31;5054097;28;20052;-75
2023/12/31 11:11:45;;;;;;;4.53;1.30;;;;;;;8.89;100.00;99550.38;5054116;28;20358;-78
2023/12/31 11:14:13;;;;;;;4.68;1.80;;;;;;;8.85;100.00;99536.13;5053824;28;20064;-76
2023/12/31 11:16:46;;;;;;;3.95;1.70;;;;;;;8.82;100.00;99526.03;5053792;28;20058;-73
2023/12/31 11:19:15;;;;;;;2.38;0.80;;;;;;;8.92;100.00;99551.88;5053777;28;20036;-75
2023/12/31 11:22:01;;;;;;;2.40;1.05;;;;;;;8.80;100.00;99563.94;5053498;28;20053;-73
2023/12/31 11:24:28;;;;;;;2.15;0.98;;;;;;;8.69;100.00;99560.53;5053523;28;20021;-76
2023/12/31 11:27:26;;;;;;;2.05;1.08;;;;;;;8.68;100.00;99559.72;5053663;28;20427;-75
2023/12/31 11:29:52;;;;;;;2.75;1.02;;;;;;;8.72;100.00;99565.44;4953502;29;20039;-75
2023/12/31 11:32:19;;;;;;;3.75;1.17;;;;;;;8.84;100.00;99560.19;4953479;29;20595;-75
2023/12/31 11:34:51;;;;;;;1.85;1.05;;;;;;;8.89;100.00;99554.72;4953293;29;20039;-74